sensor_id;sensor_type;location;lat;lon;timestamp;temperature;humidity
27384;DHT22;14851;51.166;4.760;2023-11-19T00:00:08;12.70;99.90
27384;DHT22;14851;51.166;4.760;2023-11-19T00:02:40;12.70;99.90
27384;DHT22;14851;51.166;4.760;2023-11-19T00:05:12;12.80;99.90
27384;DHT22;14851;51.166;4.760;2023-11-19T00:07:38;12.70;99.90
27384;DHT22;14851;51.166;4.760;2023-11-19T00:10:10;12.60;99.90
27384;DHT22;14851;51.166;4.760;2023-11-19T00:12:43;12.70;99.90
27384;DHT22;14851;51.166;4.760;2023-11-19T00:15:14;12.70;99.90
27384;DHT22;14851;51.166;4.760;2023-11-19T00:17:41;12.70;99.90
27384;DHT22;14851;51.166;4.760;2023-11-19T00:20:22;12.70;99.90
27384;DHT22;14851;51.166;4.760;2023-11-19T00:22:52;12.70;99.90
27384;DHT22;14851;51.166;4.760;2023-11-19T00:25:20;12.70;99.90
27384;DHT22;14851;51.166;4.760;2023-11-19T00:27:48;12.70;99.90
27384;DHT22;14851;51.166;4.760;2023-11-19T00:30:17;12.70;99.90
27384;DHT22;14851;51.166;4.760;2023-11-19T00:32:48;12.70;99.90
27384;DHT22;14851;51.166;4.760;2023-11-19T00:35:14;12.70;99.90
27384;DHT22;14851;51.166;4.760;2023-11-19T00:37:43;12.80;99.90
27384;DHT22;14851;51.166;4.760;2023-11-19T00:40:13;12.80;99.90
27384;DHT22;14851;51.166;4.760;2023-11-19T00:42:41;12.70;99.90
27384;DHT22;14851;51.166;4.760;2023-11-19T00:45:07;12.70;99.90
27384;DHT22;14851;51.166;4.760;2023-11-19T00:47:35;12.70;99.90
27384;DHT22;14851;51.166;4.760;2023-11-19T00:50:02;12.70;99.90
27384;DHT22;14851;51.166;4.760;2023-11-19T00:52:28;12.80;99.90
27384;DHT22;14851;51.166;4.760;2023-11-19T00:54:54;12.80;99.90
27384;DHT22;14851;51.166;4.760;2023-11-19T00:57:20;12.80;99.90
27384;DHT22;14851;51.166;4.760;2023-11-19T00:59:47;12.80;99.90
27384;DHT22;14851;51.166;4.760;2023-11-19T01:02:13;12.70;99.90
27384;DHT22;14851;51.166;4.760;2023-11-19T01:04:39;12.70;99.90
27384;DHT22;14851;51.166;4.760;2023-11-19T01:07:06;12.80;99.90
27384;DHT22;14851;51.166;4.760;2023-11-19T01:09:33;12.80;99.90
27384;DHT22;14851;51.166;4.760;2023-11-19T01:12:02;12.80;99.90
27384;DHT22;14851;51.166;4.760;2023-11-19T01:14:28;12.70;99.90
27384;DHT22;14851;51.166;4.760;2023-11-19T01:16:55;12.70;99.90
27384;DHT22;14851;51.166;4.760;2023-11-19T01:19:23;12.80;99.90
27384;DHT22;14851;51.166;4.760;2023-11-19T01:21:51;12.80;99.90
27384;DHT22;14851;51.166;4.760;2023-11-19T01:24:18;12.70;99.90
27384;DHT22;14851;51.166;4.760;2023-11-19T01:26:44;12.70;99.90
27384;DHT22;14851;51.166;4.760;2023-11-19T01:29:15;12.70;99.90
27384;DHT22;14851;51.166;4.760;2023-11-19T01:31:43;12.70;99.90
27384;DHT22;14851;51.166;4.760;2023-11-19T01:34:12;12.70;99.90
27384;DHT22;14851;51.166;4.760;2023-11-19T01:36:40;12.60;99.90
27384;DHT22;14851;51.166;4.760;2023-11-19T01:39:06;12.70;99.90
27384;DHT22;14851;51.166;4.760;2023-11-19T01:41:38;12.60;99.90
27384;DHT22;14851;51.166;4.760;2023-11-19T01:44:07;12.60;99.90
27384;DHT22;14851;51.166;4.760;2023-11-19T01:46:40;12.60;99.90
27384;DHT22;14851;51.166;4.760;2023-11-19T01:49:10;12.60;99.90
27384;DHT22;14851;51.166;4.760;2023-11-19T01:51:39;12.70;99.90
27384;DHT22;14851;51.166;4.760;2023-11-19T01:54:07;12.60;99.90
27384;DHT22;14851;51.166;4.760;2023-11-19T01:56:34;12.60;99.90
27384;DHT22;14851;51.166;4.760;2023-11-19T01:59:01;12.60;99.90
27384;DHT22;14851;51.166;4.760;2023-11-19T02:01:30;12.60;99.90
27384;DHT22;14851;51.166;4.760;2023-11-19T02:03:58;12.60;99.90
27384;DHT22;14851;51.166;4.760;2023-11-19T02:06:25;12.60;99.90
27384;DHT22;14851;51.166;4.760;2023-11-19T02:08:55;12.60;99.90
27384;DHT22;14851;51.166;4.760;2023-11-19T02:11:21;12.60;99.90
27384;DHT22;14851;51.166;4.760;2023-11-19T02:13:47;12.60;99.90
27384;DHT22;14851;51.166;4.760;2023-11-19T02:16:14;12.70;99.90
27384;DHT22;14851;51.166;4.760;2023-11-19T02:18:42;12.70;99.90
27384;DHT22;14851;51.166;4.760;2023-11-19T02:21:10;12.60;99.90
27384;DHT22;14851;51.166;4.760;2023-11-19T02:23:36;12.60;99.90
27384;DHT22;14851;51.166;4.760;2023-11-19T02:28:36;12.60;99.90
27384;DHT22;14851;51.166;4.760;2023-11-19T02:31:03;12.50;99.90
27384;DHT22;14851;51.166;4.760;2023-11-19T02:33:31;12.60;99.90
27384;DHT22;14851;51.166;4.760;2023-11-19T02:35:57;12.50;99.90
27384;DHT22;14851;51.166;4.760;2023-11-19T02:38:24;12.50;99.90
27384;DHT22;14851;51.166;4.760;2023-11-19T02:40:50;12.50;99.90
27384;DHT22;14851;51.166;4.760;2023-11-19T02:43:16;12.50;99.90
27384;DHT22;14851;51.166;4.760;2023-11-19T02:45:43;12.40;99.90
27384;DHT22;14851;51.166;4.760;2023-11-19T02:48:13;12.50;99.90
27384;DHT22;14851;51.166;4.760;2023-11-19T02:50:42;12.40;99.90
27384;DHT22;14851;51.166;4.760;2023-11-19T02:53:13;12.50;99.90
27384;DHT22;14851;51.166;4.760;2023-11-19T02:55:42;12.40;99.90
27384;DHT22;14851;51.166;4.760;2023-11-19T02:58:16;12.40;99.90
27384;DHT22;14851;51.166;4.760;2023-11-19T03:00:46;12.30;99.90
27384;DHT22;14851;51.166;4.760;2023-11-19T03:03:27;12.40;99.90
27384;DHT22;14851;51.166;4.760;2023-11-19T03:06:05;12.30;99.90
27384;DHT22;14851;51.166;4.760;2023-11-19T03:08:32;12.30;99.90
27384;DHT22;14851;51.166;4.760;2023-11-19T03:11:01;12.30;99.90
27384;DHT22;14851;51.166;4.760;2023-11-19T03:13:28;12.30;99.90
27384;DHT22;14851;51.166;4.760;2023-11-19T03:15:55;12.30;99.90
27384;DHT22;14851;51.166;4.760;2023-11-19T03:18:21;12.30;99.90
27384;DHT22;14851;51.166;4.760;2023-11-19T03:20:48;12.30;99.90
27384;DHT22;14851;51.166;4.760;2023-11-19T03:23:15;12.20;99.90
27384;DHT22;14851;51.166;4.760;2023-11-19T03:25:41;12.30;99.90
27384;DHT22;14851;51.166;4.760;2023-11-19T03:28:09;12.20;99.90
27384;DHT22;14851;51.166;4.760;2023-11-19T03:30:37;12.20;99.90
27384;DHT22;14851;51.166;4.760;2023-11-19T03:33:06;12.20;99.90
27384;DHT22;14851;51.166;4.760;2023-11-19T03:35:31;12.20;99.90
27384;DHT22;14851;51.166;4.760;2023-11-19T03:37:58;12.20;99.90
27384;DHT22;14851;51.166;4.760;2023-11-19T03:40:24;12.20;99.90
27384;DHT22;14851;51.166;4.760;2023-11-19T03:42:53;12.30;99.90
27384;DHT22;14851;51.166;4.760;2023-11-19T03:45:21;12.20;99.90
27384;DHT22;14851;51.166;4.760;2023-11-19T03:47:48;12.10;99.90
27384;DHT22;14851;51.166;4.760;2023-11-19T03:50:18;12.20;99.90
27384;DHT22;14851;51.166;4.760;2023-11-19T03:52:47;12.10;99.90
27384;DHT22;14851;51.166;4.760;2023-11-19T03:55:13;12.10;99.90
27384;DHT22;14851;51.166;4.760;2023-11-19T03:57:39;12.10;99.90
27384;DHT22;14851;51.166;4.760;2023-11-19T04:00:05;12.10;99.90
27384;DHT22;14851;51.166;4.760;2023-11-19T04:02:38;12.10;99.90
27384;DHT22;14851;51.166;4.760;2023-11-19T04:05:06;12.10;99.90
27384;DHT22;14851;51.166;4.760;2023-11-19T04:07:32;12.10;99.90
27384;DHT22;14851;51.166;4.760;2023-11-19T04:09:59;12.10;99.90
27384;DHT22;14851;51.166;4.760;2023-11-19T04:12:25;12.10;99.90
27384;DHT22;14851;51.166;4.760;2023-11-19T04:14:54;12.10;99.90
27384;DHT22;14851;51.166;4.760;2023-11-19T04:17:20;12.10;99.90
27384;DHT22;14851;51.166;4.760;2023-11-19T04:19:49;12.10;99.90
27384;DHT22;14851;51.166;4.760;2023-11-19T04:22:15;12.10;99.90
27384;DHT22;14851;51.166;4.760;2023-11-19T04:24:40;12.10;99.90
27384;DHT22;14851;51.166;4.760;2023-11-19T04:27:08;12.10;99.90
27384;DHT22;14851;51.166;4.760;2023-11-19T04:29:36;12.10;99.90
27384;DHT22;14851;51.166;4.760;2023-11-19T04:32:03;12.10;99.90
27384;DHT22;14851;51.166;4.760;2023-11-19T04:34:28;12.00;99.90
27384;DHT22;14851;51.166;4.760;2023-11-19T04:36:55;12.00;99.90
27384;DHT22;14851;51.166;4.760;2023-11-19T04:39:22;12.00;99.90
27384;DHT22;14851;51.166;4.760;2023-11-19T04:41:51;12.00;99.90
27384;DHT22;14851;51.166;4.760;2023-11-19T04:44:21;11.90;99.90
27384;DHT22;14851;51.166;4.760;2023-11-19T04:46:47;11.80;99.90
27384;DHT22;14851;51.166;4.760;2023-11-19T04:49:13;11.80;99.90
27384;DHT22;14851;51.166;4.760;2023-11-19T04:51:45;11.80;99.90
27384;DHT22;14851;51.166;4.760;2023-11-19T04:54:15;11.80;99.90
27384;DHT22;14851;51.166;4.760;2023-11-19T04:56:45;11.80;99.90
27384;DHT22;14851;51.166;4.760;2023-11-19T04:59:13;11.80;99.90
27384;DHT22;14851;51.166;4.760;2023-11-19T05:01:40;11.70;99.90
27384;DHT22;14851;51.166;4.760;2023-11-19T05:04:08;11.70;99.90
27384;DHT22;14851;51.166;4.760;2023-11-19T05:06:34;11.70;99.90
27384;DHT22;14851;51.166;4.760;2023-11-19T05:09:01;11.70;99.90
27384;DHT22;14851;51.166;4.760;2023-11-19T05:11:27;11.70;99.90
27384;DHT22;14851;51.166;4.760;2023-11-19T05:13:56;11.70;99.90
27384;DHT22;14851;51.166;4.760;2023-11-19T05:16:22;11.60;99.90
27384;DHT22;14851;51.166;4.760;2023-11-19T05:18:51;11.70;99.90
27384;DHT22;14851;51.166;4.760;2023-11-19T05:21:17;11.60;99.90
27384;DHT22;14851;51.166;4.760;2023-11-19T05:23:44;11.60;99.90
27384;DHT22;14851;51.166;4.760;2023-11-19T05:26:18;11.60;99.90
27384;DHT22;14851;51.166;4.760;2023-11-19T05:28:45;11.60;99.90
27384;DHT22;14851;51.166;4.760;2023-11-19T05:31:11;11.60;99.90
27384;DHT22;14851;51.166;4.760;2023-11-19T05:33:37;11.60;99.90
27384;DHT22;14851;51.166;4.760;2023-11-19T05:36:05;11.60;99.90
27384;DHT22;14851;51.166;4.760;2023-11-19T05:38:34;11.50;99.90
27384;DHT22;14851;51.166;4.760;2023-11-19T05:41:03;11.50;99.90
27384;DHT22;14851;51.166;4.760;2023-11-19T05:43:32;11.50;99.90
27384;DHT22;14851;51.166;4.760;2023-11-19T05:46:02;11.40;99.90
27384;DHT22;14851;51.166;4.760;2023-11-19T05:48:28;11.50;99.90
27384;DHT22;14851;51.166;4.760;2023-11-19T05:50:55;11.40;99.90
27384;DHT22;14851;51.166;4.760;2023-11-19T05:53:24;11.40;99.90
27384;DHT22;14851;51.166;4.760;2023-11-19T05:55:50;11.40;99.90
27384;DHT22;14851;51.166;4.760;2023-11-19T05:58:27;11.40;99.90
27384;DHT22;14851;51.166;4.760;2023-11-19T06:00:59;11.40;99.90
27384;DHT22;14851;51.166;4.760;2023-11-19T06:03:26;11.40;99.90
27384;DHT22;14851;51.166;4.760;2023-11-19T06:05:52;11.30;99.90
27384;DHT22;14851;51.166;4.760;2023-11-19T06:08:20;11.30;99.90
27384;DHT22;14851;51.166;4.760;2023-11-19T06:10:46;11.30;99.90
27384;DHT22;14851;51.166;4.760;2023-11-19T06:13:13;11.30;99.90
27384;DHT22;14851;51.166;4.760;2023-11-19T06:15:46;11.30;99.90
27384;DHT22;14851;51.166;4.760;2023-11-19T06:18:12;11.30;99.90
27384;DHT22;14851;51.166;4.760;2023-11-19T06:20:38;11.30;99.90
27384;DHT22;14851;51.166;4.760;2023-11-19T06:23:04;11.30;99.90
27384;DHT22;14851;51.166;4.760;2023-11-19T06:25:33;11.30;99.90
27384;DHT22;14851;51.166;4.760;2023-11-19T06:28:01;11.40;99.90
27384;DHT22;14851;51.166;4.760;2023-11-19T06:30:27;11.40;99.90
27384;DHT22;14851;51.166;4.760;2023-11-19T06:32:55;11.40;99.90
27384;DHT22;14851;51.166;4.760;2023-11-19T06:35:21;11.40;99.90
27384;DHT22;14851;51.166;4.760;2023-11-19T06:37:48;11.40;99.90
27384;DHT22;14851;51.166;4.760;2023-11-19T06:40:18;11.30;99.90
27384;DHT22;14851;51.166;4.760;2023-11-19T06:42:48;11.30;99.90
27384;DHT22;14851;51.166;4.760;2023-11-19T06:45:14;11.30;99.90
27384;DHT22;14851;51.166;4.760;2023-11-19T06:47:42;11.30;99.90
27384;DHT22;14851;51.166;4.760;2023-11-19T06:50:08;11.20;99.90
27384;DHT22;14851;51.166;4.760;2023-11-19T06:52:35;11.20;99.90
27384;DHT22;14851;51.166;4.760;2023-11-19T06:55:03;11.20;99.90
27384;DHT22;14851;51.166;4.760;2023-11-19T06:57:30;11.20;99.90
27384;DHT22;14851;51.166;4.760;2023-11-19T06:59:58;11.20;99.90
27384;DHT22;14851;51.166;4.760;2023-11-19T07:02:25;11.20;99.90
27384;DHT22;14851;51.166;4.760;2023-11-19T07:04:54;11.20;99.90
27384;DHT22;14851;51.166;4.760;2023-11-19T07:07:23;11.20;99.90
27384;DHT22;14851;51.166;4.760;2023-11-19T07:09:52;11.20;99.90
27384;DHT22;14851;51.166;4.760;2023-11-19T07:12:18;11.20;99.90
27384;DHT22;14851;51.166;4.760;2023-11-19T07:14:45;11.20;99.90
27384;DHT22;14851;51.166;4.760;2023-11-19T07:17:16;11.20;99.90
27384;DHT22;14851;51.166;4.760;2023-11-19T07:19:43;11.20;99.90
27384;DHT22;14851;51.166;4.760;2023-11-19T07:22:11;11.20;99.90
27384;DHT22;14851;51.166;4.760;2023-11-19T07:24:41;11.30;99.90
27384;DHT22;14851;51.166;4.760;2023-11-19T07:27:07;11.40;99.90
27384;DHT22;14851;51.166;4.760;2023-11-19T07:29:35;11.40;99.90
27384;DHT22;14851;51.166;4.760;2023-11-19T07:32:02;11.50;99.90
27384;DHT22;14851;51.166;4.760;2023-11-19T07:34:30;11.50;99.90
27384;DHT22;14851;51.166;4.760;2023-11-19T07:36:56;11.50;99.90
27384;DHT22;14851;51.166;4.760;2023-11-19T07:39:31;11.50;99.90
27384;DHT22;14851;51.166;4.760;2023-11-19T07:41:58;11.50;99.90
27384;DHT22;14851;51.166;4.760;2023-11-19T07:44:25;11.50;99.90
27384;DHT22;14851;51.166;4.760;2023-11-19T07:46:53;11.40;99.90
27384;DHT22;14851;51.166;4.760;2023-11-19T07:49:20;11.40;99.90
27384;DHT22;14851;51.166;4.760;2023-11-19T07:51:47;11.40;99.90
27384;DHT22;14851;51.166;4.760;2023-11-19T07:54:13;11.50;99.90
27384;DHT22;14851;51.166;4.760;2023-11-19T07:56:41;11.50;99.90
27384;DHT22;14851;51.166;4.760;2023-11-19T07:59:09;11.40;99.90
27384;DHT22;14851;51.166;4.760;2023-11-19T08:01:35;11.40;99.90
27384;DHT22;14851;51.166;4.760;2023-11-19T08:04:04;11.40;99.90
27384;DHT22;14851;51.166;4.760;2023-11-19T08:06:32;11.40;99.90
27384;DHT22;14851;51.166;4.760;2023-11-19T08:08:59;11.40;99.90
27384;DHT22;14851;51.166;4.760;2023-11-19T08:11:27;11.40;99.90
27384;DHT22;14851;51.166;4.760;2023-11-19T08:13:54;11.40;99.90
27384;DHT22;14851;51.166;4.760;2023-11-19T08:16:20;11.40;99.90
27384;DHT22;14851;51.166;4.760;2023-11-19T08:18:46;11.40;99.90
27384;DHT22;14851;51.166;4.760;2023-11-19T08:21:14;11.40;99.90
27384;DHT22;14851;51.166;4.760;2023-11-19T08:23:43;11.40;99.90
27384;DHT22;14851;51.166;4.760;2023-11-19T08:26:09;11.50;99.90
27384;DHT22;14851;51.166;4.760;2023-11-19T08:28:35;11.50;99.90
27384;DHT22;14851;51.166;4.760;2023-11-19T08:31:02;11.40;99.90
27384;DHT22;14851;51.166;4.760;2023-11-19T08:33:30;11.40;99.90
27384;DHT22;14851;51.166;4.760;2023-11-19T08:35:55;11.50;99.90
27384;DHT22;14851;51.166;4.760;2023-11-19T08:38:24;11.50;99.90
27384;DHT22;14851;51.166;4.760;2023-11-19T08:40:51;11.50;99.90
27384;DHT22;14851;51.166;4.760;2023-11-19T08:43:22;11.50;99.90
27384;DHT22;14851;51.166;4.760;2023-11-19T08:45:51;11.50;99.90
27384;DHT22;14851;51.166;4.760;2023-11-19T08:48:23;11.50;99.90
27384;DHT22;14851;51.166;4.760;2023-11-19T08:50:49;11.60;99.90
27384;DHT22;14851;51.166;4.760;2023-11-19T08:53:15;11.60;99.90
27384;DHT22;14851;51.166;4.760;2023-11-19T08:55:44;11.60;99.90
27384;DHT22;14851;51.166;4.760;2023-11-19T08:58:13;11.60;99.90
27384;DHT22;14851;51.166;4.760;2023-11-19T09:00:41;11.60;99.90
27384;DHT22;14851;51.166;4.760;2023-11-19T09:03:07;11.60;99.90
27384;DHT22;14851;51.166;4.760;2023-11-19T09:05:35;11.70;99.90
27384;DHT22;14851;51.166;4.760;2023-11-19T09:08:01;11.70;99.90
27384;DHT22;14851;51.166;4.760;2023-11-19T09:10:27;11.70;99.90
27384;DHT22;14851;51.166;4.760;2023-11-19T09:12:55;11.80;99.90
27384;DHT22;14851;51.166;4.760;2023-11-19T09:15:21;11.80;99.90
27384;DHT22;14851;51.166;4.760;2023-11-19T09:17:47;11.70;99.90
27384;DHT22;14851;51.166;4.760;2023-11-19T09:20:14;11.80;99.90
27384;DHT22;14851;51.166;4.760;2023-11-19T09:22:44;11.80;99.90
27384;DHT22;14851;51.166;4.760;2023-11-19T09:25:11;11.90;99.90
27384;DHT22;14851;51.166;4.760;2023-11-19T09:27:37;11.90;99.90
27384;DHT22;14851;51.166;4.760;2023-11-19T09:30:05;11.90;99.90
27384;DHT22;14851;51.166;4.760;2023-11-19T09:32:31;11.80;99.90
27384;DHT22;14851;51.166;4.760;2023-11-19T09:34:59;11.90;99.90
27384;DHT22;14851;51.166;4.760;2023-11-19T09:37:28;11.90;99.90
27384;DHT22;14851;51.166;4.760;2023-11-19T09:39:55;11.90;99.90
27384;DHT22;14851;51.166;4.760;2023-11-19T09:42:21;11.90;99.90
27384;DHT22;14851;51.166;4.760;2023-11-19T09:44:48;11.90;99.90
27384;DHT22;14851;51.166;4.760;2023-11-19T09:47:19;11.90;99.90
27384;DHT22;14851;51.166;4.760;2023-11-19T09:49:47;11.90;99.90
27384;DHT22;14851;51.166;4.760;2023-11-19T09:52:14;11.90;99.90
27384;DHT22;14851;51.166;4.760;2023-11-19T09:54:45;12.00;99.90
27384;DHT22;14851;51.166;4.760;2023-11-19T09:57:12;12.00;99.90
27384;DHT22;14851;51.166;4.760;2023-11-19T09:59:42;12.00;99.90
27384;DHT22;14851;51.166;4.760;2023-11-19T10:02:11;11.90;99.90
27384;DHT22;14851;51.166;4.760;2023-11-19T10:04:38;12.00;99.90
27384;DHT22;14851;51.166;4.760;2023-11-19T10:07:05;12.10;99.90
27384;DHT22;14851;51.166;4.760;2023-11-19T10:09:31;12.10;99.90
27384;DHT22;14851;51.166;4.760;2023-11-19T10:11:59;12.10;99.90
27384;DHT22;14851;51.166;4.760;2023-11-19T10:14:28;12.10;99.90
27384;DHT22;14851;51.166;4.760;2023-11-19T10:16:56;12.20;99.90
27384;DHT22;14851;51.166;4.760;2023-11-19T10:19:29;12.20;99.90
27384;DHT22;14851;51.166;4.760;2023-11-19T10:22:04;12.20;99.90
27384;DHT22;14851;51.166;4.760;2023-11-19T10:24:34;12.20;99.90
27384;DHT22;14851;51.166;4.760;2023-11-19T10:27:00;12.20;99.90
27384;DHT22;14851;51.166;4.760;2023-11-19T10:29:30;12.20;99.90
27384;DHT22;14851;51.166;4.760;2023-11-19T10:31:57;12.20;99.90
27384;DHT22;14851;51.166;4.760;2023-11-19T10:34:27;12.20;99.90
27384;DHT22;14851;51.166;4.760;2023-11-19T10:36:56;12.20;99.90
27384;DHT22;14851;51.166;4.760;2023-11-19T10:39:22;12.30;99.90
27384;DHT22;14851;51.166;4.760;2023-11-19T10:41:50;12.40;99.90
27384;DHT22;14851;51.166;4.760;2023-11-19T10:44:46;12.50;99.90
27384;DHT22;14851;51.166;4.760;2023-11-19T10:47:14;12.50;99.90
27384;DHT22;14851;51.166;4.760;2023-11-19T10:49:43;12.50;99.90
27384;DHT22;14851;51.166;4.760;2023-11-19T10:52:12;12.50;99.90
27384;DHT22;14851;51.166;4.760;2023-11-19T10:54:43;12.50;99.90
27384;DHT22;14851;51.166;4.760;2023-11-19T10:57:12;12.50;99.90
27384;DHT22;14851;51.166;4.760;2023-11-19T10:59:41;12.50;99.90
27384;DHT22;14851;51.166;4.760;2023-11-19T11:02:13;12.50;99.90
27384;DHT22;14851;51.166;4.760;2023-11-19T11:04:41;12.50;99.90
27384;DHT22;14851;51.166;4.760;2023-11-19T11:07:09;12.50;99.90
27384;DHT22;14851;51.166;4.760;2023-11-19T11:09:37;12.50;99.90
27384;DHT22;14851;51.166;4.760;2023-11-19T11:12:04;12.40;99.90
27384;DHT22;14851;51.166;4.760;2023-11-19T11:14:32;12.50;99.90
27384;DHT22;14851;51.166;4.760;2023-11-19T11:17:05;12.50;99.90
27384;DHT22;14851;51.166;4.760;2023-11-19T11:19:36;12.50;99.90
27384;DHT22;14851;51.166;4.760;2023-11-19T11:22:04;12.50;99.90
27384;DHT22;14851;51.166;4.760;2023-11-19T11:34:24;12.60;99.90
27384;DHT22;14851;51.166;4.760;2023-11-19T11:36:25;12.70;99.90
27384;DHT22;14851;51.166;4.760;2023-11-19T11:38:52;12.80;99.90
27384;DHT22;14851;51.166;4.760;2023-11-19T11:41:25;12.80;99.90
27384;DHT22;14851;51.166;4.760;2023-11-19T11:43:57;12.80;99.90
27384;DHT22;14851;51.166;4.760;2023-11-19T11:49:07;12.80;99.90
27384;DHT22;14851;51.166;4.760;2023-11-19T11:57:11;12.80;99.90
27384;DHT22;14851;51.166;4.760;2023-11-19T12:02:11;12.80;99.90
27384;DHT22;14851;51.166;4.760;2023-11-19T12:04:46;12.90;99.90
27384;DHT22;14851;51.166;4.760;2023-11-19T12:07:23;12.90;99.90
27384;DHT22;14851;51.166;4.760;2023-11-19T12:10:05;12.90;99.90
27384;DHT22;14851;51.166;4.760;2023-11-19T12:12:33;12.90;99.90
27384;DHT22;14851;51.166;4.760;2023-11-19T12:15:05;12.90;99.90
27384;DHT22;14851;51.166;4.760;2023-11-19T12:17:36;12.90;99.90
27384;DHT22;14851;51.166;4.760;2023-11-19T12:20:06;12.90;99.90
27384;DHT22;14851;51.166;4.760;2023-11-19T12:22:38;12.90;99.90
27384;DHT22;14851;51.166;4.760;2023-11-19T12:25:06;12.80;99.90
27384;DHT22;14851;51.166;4.760;2023-11-19T12:27:35;12.80;99.90
27384;DHT22;14851;51.166;4.760;2023-11-19T12:30:03;12.80;99.90
27384;DHT22;14851;51.166;4.760;2023-11-19T12:32:43;12.80;99.90
27384;DHT22;14851;51.166;4.760;2023-11-19T12:35:12;12.70;99.90
27384;DHT22;14851;51.166;4.760;2023-11-19T12:37:42;12.70;99.90
27384;DHT22;14851;51.166;4.760;2023-11-19T12:40:24;12.70;99.90
27384;DHT22;14851;51.166;4.760;2023-11-19T12:42:54;12.60;99.90
27384;DHT22;14851;51.166;4.760;2023-11-19T12:45:21;12.60;99.90
27384;DHT22;14851;51.166;4.760;2023-11-19T12:47:49;12.50;99.90
27384;DHT22;14851;51.166;4.760;2023-11-19T12:50:22;12.50;99.90
27384;DHT22;14851;51.166;4.760;2023-11-19T12:53:01;12.50;99.90
27384;DHT22;14851;51.166;4.760;2023-11-19T12:55:28;12.50;99.90
27384;DHT22;14851;51.166;4.760;2023-11-19T12:57:55;12.50;99.90
27384;DHT22;14851;51.166;4.760;2023-11-19T13:00:25;12.40;99.90
27384;DHT22;14851;51.166;4.760;2023-11-19T13:02:53;12.40;99.90
27384;DHT22;14851;51.166;4.760;2023-11-19T13:05:31;12.40;99.90
27384;DHT22;14851;51.166;4.760;2023-11-19T13:08:07;12.40;99.90
27384;DHT22;14851;51.166;4.760;2023-11-19T13:10:50;12.40;99.90
27384;DHT22;14851;51.166;4.760;2023-11-19T13:13:17;12.40;99.90
27384;DHT22;14851;51.166;4.760;2023-11-19T13:15:43;12.40;99.90
27384;DHT22;14851;51.166;4.760;2023-11-19T13:18:10;12.40;99.90
27384;DHT22;14851;51.166;4.760;2023-11-19T13:20:39;12.40;99.90
27384;DHT22;14851;51.166;4.760;2023-11-19T13:23:07;12.50;99.90
27384;DHT22;14851;51.166;4.760;2023-11-19T13:25:33;12.50;99.90
27384;DHT22;14851;51.166;4.760;2023-11-19T13:28:00;12.50;99.90
27384;DHT22;14851;51.166;4.760;2023-11-19T13:30:26;12.50;99.90
27384;DHT22;14851;51.166;4.760;2023-11-19T13:32:52;12.50;99.90
27384;DHT22;14851;51.166;4.760;2023-11-19T13:35:21;12.60;99.90
27384;DHT22;14851;51.166;4.760;2023-11-19T13:37:50;12.60;99.90
27384;DHT22;14851;51.166;4.760;2023-11-19T13:40:19;12.60;99.90
27384;DHT22;14851;51.166;4.760;2023-11-19T13:42:47;12.60;99.90
27384;DHT22;14851;51.166;4.760;2023-11-19T13:45:14;12.60;99.90
27384;DHT22;14851;51.166;4.760;2023-11-19T13:47:42;12.60;99.90
27384;DHT22;14851;51.166;4.760;2023-11-19T13:50:13;12.60;99.90
27384;DHT22;14851;51.166;4.760;2023-11-19T13:52:41;12.60;99.90
27384;DHT22;14851;51.166;4.760;2023-11-19T13:55:12;12.60;99.90
27384;DHT22;14851;51.166;4.760;2023-11-19T13:57:39;12.60;99.90
27384;DHT22;14851;51.166;4.760;2023-11-19T14:00:08;12.60;99.90
27384;DHT22;14851;51.166;4.760;2023-11-19T14:03:03;12.60;99.90
27384;DHT22;14851;51.166;4.760;2023-11-19T14:05:29;12.60;99.90
27384;DHT22;14851;51.166;4.760;2023-11-19T14:07:58;12.60;99.90
27384;DHT22;14851;51.166;4.760;2023-11-19T14:10:27;12.70;99.90
27384;DHT22;14851;51.166;4.760;2023-11-19T14:12:56;12.70;99.90
27384;DHT22;14851;51.166;4.760;2023-11-19T14:15:24;12.70;99.90
27384;DHT22;14851;51.166;4.760;2023-11-19T14:17:52;12.60;99.90
27384;DHT22;14851;51.166;4.760;2023-11-19T14:20:20;12.60;99.90
27384;DHT22;14851;51.166;4.760;2023-11-19T14:22:49;12.60;99.90
27384;DHT22;14851;51.166;4.760;2023-11-19T14:25:17;12.60;99.90
27384;DHT22;14851;51.166;4.760;2023-11-19T14:27:43;12.60;99.90
27384;DHT22;14851;51.166;4.760;2023-11-19T14:30:11;12.70;99.90
27384;DHT22;14851;51.166;4.760;2023-11-19T14:32:40;12.70;99.90
27384;DHT22;14851;51.166;4.760;2023-11-19T14:35:06;12.70;99.90
27384;DHT22;14851;51.166;4.760;2023-11-19T14:37:36;12.60;99.90
27384;DHT22;14851;51.166;4.760;2023-11-19T14:40:03;12.60;99.90
27384;DHT22;14851;51.166;4.760;2023-11-19T14:42:31;12.60;99.90
27384;DHT22;14851;51.166;4.760;2023-11-19T14:44:57;12.60;99.90
27384;DHT22;14851;51.166;4.760;2023-11-19T14:47:23;12.60;99.90
27384;DHT22;14851;51.166;4.760;2023-11-19T14:49:51;12.60;99.90
27384;DHT22;14851;51.166;4.760;2023-11-19T14:52:17;12.50;99.90
27384;DHT22;14851;51.166;4.760;2023-11-19T14:54:45;12.50;99.90
27384;DHT22;14851;51.166;4.760;2023-11-19T14:57:12;12.40;99.90
27384;DHT22;14851;51.166;4.760;2023-11-19T14:59:38;12.40;99.90
27384;DHT22;14851;51.166;4.760;2023-11-19T15:02:05;12.40;99.90
27384;DHT22;14851;51.166;4.760;2023-11-19T15:04:34;12.40;99.90
27384;DHT22;14851;51.166;4.760;2023-11-19T15:07:03;12.30;99.90
27384;DHT22;14851;51.166;4.760;2023-11-19T15:09:33;12.40;99.90
27384;DHT22;14851;51.166;4.760;2023-11-19T15:11:59;12.30;99.90
27384;DHT22;14851;51.166;4.760;2023-11-19T15:14:27;12.30;99.90
27384;DHT22;14851;51.166;4.760;2023-11-19T15:16:54;12.20;99.90
27384;DHT22;14851;51.166;4.760;2023-11-19T15:19:20;12.20;99.90
27384;DHT22;14851;51.166;4.760;2023-11-19T15:21:46;12.20;99.90
27384;DHT22;14851;51.166;4.760;2023-11-19T15:24:13;12.10;99.90
27384;DHT22;14851;51.166;4.760;2023-11-19T15:26:44;12.20;99.90
27384;DHT22;14851;51.166;4.760;2023-11-19T15:29:10;12.10;99.90
27384;DHT22;14851;51.166;4.760;2023-11-19T15:31:37;12.10;99.90
27384;DHT22;14851;51.166;4.760;2023-11-19T15:34:05;12.10;99.90
27384;DHT22;14851;51.166;4.760;2023-11-19T15:36:32;12.10;99.90
27384;DHT22;14851;51.166;4.760;2023-11-19T15:39:01;12.20;99.90
27384;DHT22;14851;51.166;4.760;2023-11-19T15:41:27;12.10;99.90
27384;DHT22;14851;51.166;4.760;2023-11-19T15:43:54;12.10;99.90
27384;DHT22;14851;51.166;4.760;2023-11-19T15:46:20;12.10;99.90
27384;DHT22;14851;51.166;4.760;2023-11-19T15:48:46;12.10;99.90
27384;DHT22;14851;51.166;4.760;2023-11-19T15:51:12;12.10;99.90
27384;DHT22;14851;51.166;4.760;2023-11-19T15:53:38;12.20;99.90
27384;DHT22;14851;51.166;4.760;2023-11-19T15:56:05;12.20;99.90
27384;DHT22;14851;51.166;4.760;2023-11-19T15:58:31;12.20;99.90